sensor_id;sensor_type;location;lat;lon;timestamp;temperature;humidity
69393;SHT31;56582;44.624;20.378;2023-03-16T00:00:19;1.67;95.65
69393;SHT31;56582;44.624;20.378;2023-03-16T00:02:45;1.73;95.83
69393;SHT31;56582;44.624;20.378;2023-03-16T00:05:12;1.74;96.11
69393;SHT31;56582;44.624;20.378;2023-03-16T00:07:38;1.65;95.99
69393;SHT31;56582;44.624;20.378;2023-03-16T00:10:04;1.64;96.20
69393;SHT31;56582;44.624;20.378;2023-03-16T00:12:30;1.65;96.27
69393;SHT31;56582;44.624;20.378;2023-03-16T00:14:59;1.68;96.00
69393;SHT31;56582;44.624;20.378;2023-03-16T00:17:25;1.74;95.99
69393;SHT31;56582;44.624;20.378;2023-03-16T00:19:54;1.79;95.84
69393;SHT31;56582;44.624;20.378;2023-03-16T00:22:22;1.75;95.85
69393;SHT31;56582;44.624;20.378;2023-03-16T00:24:48;1.81;95.87
69393;SHT31;56582;44.624;20.378;2023-03-16T00:27:14;1.73;95.96
69393;SHT31;56582;44.624;20.378;2023-03-16T00:29:44;1.82;96.11
69393;SHT31;56582;44.624;20.378;2023-03-16T00:32:24;1.75;95.80
69393;SHT31;56582;44.624;20.378;2023-03-16T00:34:50;1.68;95.83
69393;SHT31;56582;44.624;20.378;2023-03-16T00:37:18;1.64;96.05
69393;SHT31;56582;44.624;20.378;2023-03-16T00:39:45;1.74;96.06
69393;SHT31;56582;44.624;20.378;2023-03-16T00:42:12;1.75;96.04
69393;SHT31;56582;44.624;20.378;2023-03-16T00:44:38;1.74;95.55
69393;SHT31;56582;44.624;20.378;2023-03-16T00:47:06;1.74;95.37
69393;SHT31;56582;44.624;20.378;2023-03-16T00:49:33;1.75;95.35
69393;SHT31;56582;44.624;20.378;2023-03-16T00:52:03;1.84;95.16
69393;SHT31;56582;44.624;20.378;2023-03-16T00:54:29;1.81;95.15
69393;SHT31;56582;44.624;20.378;2023-03-16T00:57:00;1.81;95.48
69393;SHT31;56582;44.624;20.378;2023-03-16T00:59:26;1.84;95.52
69393;SHT31;56582;44.624;20.378;2023-03-16T01:01:52;1.94;95.46
69393;SHT31;56582;44.624;20.378;2023-03-16T01:04:18;1.95;95.40
69393;SHT31;56582;44.624;20.378;2023-03-16T01:06:44;1.89;95.33
69393;SHT31;56582;44.624;20.378;2023-03-16T01:09:10;1.95;95.44
69393;SHT31;56582;44.624;20.378;2023-03-16T01:11:36;1.98;95.42
69393;SHT31;56582;44.624;20.378;2023-03-16T01:14:02;2.01;95.40
69393;SHT31;56582;44.624;20.378;2023-03-16T01:16:28;2.09;95.22
69393;SHT31;56582;44.624;20.378;2023-03-16T01:18:53;2.16;95.32
69393;SHT31;56582;44.624;20.378;2023-03-16T01:21:19;2.22;95.38
69393;SHT31;56582;44.624;20.378;2023-03-16T01:23:46;2.37;95.06
69393;SHT31;56582;44.624;20.378;2023-03-16T01:26:11;2.28;95.02
69393;SHT31;56582;44.624;20.378;2023-03-16T01:28:37;2.26;94.92
69393;SHT31;56582;44.624;20.378;2023-03-16T01:31:08;2.23;94.74
69393;SHT31;56582;44.624;20.378;2023-03-16T01:33:34;2.39;94.48
69393;SHT31;56582;44.624;20.378;2023-03-16T01:38:27;2.34;94.42
69393;SHT31;56582;44.624;20.378;2023-03-16T01:40:53;2.46;94.12
69393;SHT31;56582;44.624;20.378;2023-03-16T01:43:21;2.57;93.95
69393;SHT31;56582;44.624;20.378;2023-03-16T01:46:16;2.49;93.97
69393;SHT31;56582;44.624;20.378;2023-03-16T01:48:57;2.53;93.96
69393;SHT31;56582;44.624;20.378;2023-03-16T01:51:42;2.44;94.35
69393;SHT31;56582;44.624;20.378;2023-03-16T01:56:43;2.50;94.15
69393;SHT31;56582;44.624;20.378;2023-03-16T01:59:13;2.49;93.31
69393;SHT31;56582;44.624;20.378;2023-03-16T02:01:40;2.49;93.81
69393;SHT31;56582;44.624;20.378;2023-03-16T02:06:54;2.90;94.59
69393;SHT31;56582;44.624;20.378;2023-03-16T02:09:21;2.91;92.43
69393;SHT31;56582;44.624;20.378;2023-03-16T02:11:48;2.88;92.38
69393;SHT31;56582;44.624;20.378;2023-03-16T02:14:14;2.67;92.48
69393;SHT31;56582;44.624;20.378;2023-03-16T02:16:40;2.67;92.94
69393;SHT31;56582;44.624;20.378;2023-03-16T02:19:10;2.54;92.57
69393;SHT31;56582;44.624;20.378;2023-03-16T02:21:55;2.50;92.77
69393;SHT31;56582;44.624;20.378;2023-03-16T02:24:23;2.39;93.23
69393;SHT31;56582;44.624;20.378;2023-03-16T02:26:56;2.53;92.97
69393;SHT31;56582;44.624;20.378;2023-03-16T02:32:10;2.39;92.27
69393;SHT31;56582;44.624;20.378;2023-03-16T02:34:37;2.34;92.78
69393;SHT31;56582;44.624;20.378;2023-03-16T02:37:03;2.33;93.00
69393;SHT31;56582;44.624;20.378;2023-03-16T02:39:29;2.42;92.92
69393;SHT31;56582;44.624;20.378;2023-03-16T02:41:54;2.39;92.99
69393;SHT31;56582;44.624;20.378;2023-03-16T02:44:26;2.33;92.33
69393;SHT31;56582;44.624;20.378;2023-03-16T02:46:55;2.36;91.60
69393;SHT31;56582;44.624;20.378;2023-03-16T02:49:28;2.36;91.21
69393;SHT31;56582;44.624;20.378;2023-03-16T02:51:57;2.32;91.63
69393;SHT31;56582;44.624;20.378;2023-03-16T02:54:23;2.34;91.45
69393;SHT31;56582;44.624;20.378;2023-03-16T02:56:49;2.29;91.22
69393;SHT31;56582;44.624;20.378;2023-03-16T02:59:15;2.28;91.21
69393;SHT31;56582;44.624;20.378;2023-03-16T03:01:41;2.34;91.65
69393;SHT31;56582;44.624;20.378;2023-03-16T03:04:07;2.32;91.61
69393;SHT31;56582;44.624;20.378;2023-03-16T03:06:32;2.34;92.06
69393;SHT31;56582;44.624;20.378;2023-03-16T03:08:58;2.50;92.87
69393;SHT31;56582;44.624;20.378;2023-03-16T03:11:24;2.87;94.97
69393;SHT31;56582;44.624;20.378;2023-03-16T03:13:50;2.80;94.34
69393;SHT31;56582;44.624;20.378;2023-03-16T03:16:15;3.22;96.14
69393;SHT31;56582;44.624;20.378;2023-03-16T03:18:41;2.97;94.81
69393;SHT31;56582;44.624;20.378;2023-03-16T03:21:07;2.58;93.26
69393;SHT31;56582;44.624;20.378;2023-03-16T03:23:33;2.81;94.05
69393;SHT31;56582;44.624;20.378;2023-03-16T03:26:00;2.79;92.94
69393;SHT31;56582;44.624;20.378;2023-03-16T03:28:27;2.91;92.81
69393;SHT31;56582;44.624;20.378;2023-03-16T03:30:53;2.81;92.63
69393;SHT31;56582;44.624;20.378;2023-03-16T03:33:18;2.81;92.90
69393;SHT31;56582;44.624;20.378;2023-03-16T03:35:46;2.93;92.71
69393;SHT31;56582;44.624;20.378;2023-03-16T03:38:12;2.83;92.88
69393;SHT31;56582;44.624;20.378;2023-03-16T03:40:37;2.80;93.33
69393;SHT31;56582;44.624;20.378;2023-03-16T03:43:03;2.79;93.86
69393;SHT31;56582;44.624;20.378;2023-03-16T03:45:29;2.79;93.58
69393;SHT31;56582;44.624;20.378;2023-03-16T03:47:55;2.94;93.28
69393;SHT31;56582;44.624;20.378;2023-03-16T03:50:20;2.98;93.41
69393;SHT31;56582;44.624;20.378;2023-03-16T03:52:46;2.95;93.43
69393;SHT31;56582;44.624;20.378;2023-03-16T03:55:11;2.90;93.30
69393;SHT31;56582;44.624;20.378;2023-03-16T03:57:37;2.70;93.12
69393;SHT31;56582;44.624;20.378;2023-03-16T04:00:05;2.90;93.05
69393;SHT31;56582;44.624;20.378;2023-03-16T04:02:38;2.91;92.50
69393;SHT31;56582;44.624;20.378;2023-03-16T04:05:05;3.08;91.74
69393;SHT31;56582;44.624;20.378;2023-03-16T04:07:30;3.00;91.63
69393;SHT31;56582;44.624;20.378;2023-03-16T04:09:56;2.79;91.46
69393;SHT31;56582;44.624;20.378;2023-03-16T04:12:22;2.79;91.87
69393;SHT31;56582;44.624;20.378;2023-03-16T04:14:47;2.88;91.88
69393;SHT31;56582;44.624;20.378;2023-03-16T04:17:12;2.84;91.53
69393;SHT31;56582;44.624;20.378;2023-03-16T04:19:38;2.87;91.26
69393;SHT31;56582;44.624;20.378;2023-03-16T04:22:03;2.91;90.97
69393;SHT31;56582;44.624;20.378;2023-03-16T04:24:29;2.85;91.18
69393;SHT31;56582;44.624;20.378;2023-03-16T04:26:58;2.88;91.42
69393;SHT31;56582;44.624;20.378;2023-03-16T04:29:24;2.84;91.03
69393;SHT31;56582;44.624;20.378;2023-03-16T04:31:50;2.77;90.59
69393;SHT31;56582;44.624;20.378;2023-03-16T04:34:18;2.63;90.98
69393;SHT31;56582;44.624;20.378;2023-03-16T04:36:43;2.81;90.88
69393;SHT31;56582;44.624;20.378;2023-03-16T04:39:09;2.83;90.63
69393;SHT31;56582;44.624;20.378;2023-03-16T04:41:34;2.93;90.24
69393;SHT31;56582;44.624;20.378;2023-03-16T04:44:00;2.79;89.81
69393;SHT31;56582;44.624;20.378;2023-03-16T04:46:27;2.83;90.35
69393;SHT31;56582;44.624;20.378;2023-03-16T04:48:53;2.80;90.04
69393;SHT31;56582;44.624;20.378;2023-03-16T04:51:23;2.94;90.15
69393;SHT31;56582;44.624;20.378;2023-03-16T04:53:49;2.95;89.82
69393;SHT31;56582;44.624;20.378;2023-03-16T04:56:14;2.91;89.66
69393;SHT31;56582;44.624;20.378;2023-03-16T04:58:43;3.01;89.61
69393;SHT31;56582;44.624;20.378;2023-03-16T05:01:09;2.97;89.93
69393;SHT31;56582;44.624;20.378;2023-03-16T05:03:34;3.08;90.87
69393;SHT31;56582;44.624;20.378;2023-03-16T05:06:00;3.14;89.65
69393;SHT31;56582;44.624;20.378;2023-03-16T05:08:25;3.21;89.61
69393;SHT31;56582;44.624;20.378;2023-03-16T05:10:55;3.08;89.07
69393;SHT31;56582;44.624;20.378;2023-03-16T05:13:20;2.91;89.80
69393;SHT31;56582;44.624;20.378;2023-03-16T05:15:47;3.01;89.96
69393;SHT31;56582;44.624;20.378;2023-03-16T05:18:12;3.04;90.45
69393;SHT31;56582;44.624;20.378;2023-03-16T05:20:37;3.09;90.01
69393;SHT31;56582;44.624;20.378;2023-03-16T05:23:03;3.12;90.08
69393;SHT31;56582;44.624;20.378;2023-03-16T05:25:29;3.19;89.76
69393;SHT31;56582;44.624;20.378;2023-03-16T05:27:54;3.07;90.05
69393;SHT31;56582;44.624;20.378;2023-03-16T05:30:21;3.14;90.06
69393;SHT31;56582;44.624;20.378;2023-03-16T05:32:46;3.08;90.17
69393;SHT31;56582;44.624;20.378;2023-03-16T05:35:12;3.04;90.12
69393;SHT31;56582;44.624;20.378;2023-03-16T05:37:41;3.21;89.96
69393;SHT31;56582;44.624;20.378;2023-03-16T05:40:09;3.35;89.67
69393;SHT31;56582;44.624;20.378;2023-03-16T05:42:48;3.11;89.84
69393;SHT31;56582;44.624;20.378;2023-03-16T05:45:15;3.15;90.06
69393;SHT31;56582;44.624;20.378;2023-03-16T05:47:42;3.09;89.45
69393;SHT31;56582;44.624;20.378;2023-03-16T05:50:09;3.22;88.96
69393;SHT31;56582;44.624;20.378;2023-03-16T05:52:38;3.26;88.79
69393;SHT31;56582;44.624;20.378;2023-03-16T05:55:06;3.35;88.69
69393;SHT31;56582;44.624;20.378;2023-03-16T05:57:32;3.23;88.44
69393;SHT31;56582;44.624;20.378;2023-03-16T05:59:59;3.16;88.72
69393;SHT31;56582;44.624;20.378;2023-03-16T06:02:24;3.14;88.69
69393;SHT31;56582;44.624;20.378;2023-03-16T06:04:50;3.21;88.49
69393;SHT31;56582;44.624;20.378;2023-03-16T06:07:15;3.26;88.82
69393;SHT31;56582;44.624;20.378;2023-03-16T06:09:41;3.25;89.00
69393;SHT31;56582;44.624;20.378;2023-03-16T06:12:06;3.40;88.32
69393;SHT31;56582;44.624;20.378;2023-03-16T06:14:32;3.40;88.63
69393;SHT31;56582;44.624;20.378;2023-03-16T06:16:57;3.35;88.61
69393;SHT31;56582;44.624;20.378;2023-03-16T06:19:22;3.44;88.46
69393;SHT31;56582;44.624;20.378;2023-03-16T06:21:48;3.58;88.26
69393;SHT31;56582;44.624;20.378;2023-03-16T06:24:13;3.55;88.65
69393;SHT31;56582;44.624;20.378;2023-03-16T06:26:39;3.44;87.57
69393;SHT31;56582;44.624;20.378;2023-03-16T06:29:05;3.40;87.73
69393;SHT31;56582;44.624;20.378;2023-03-16T06:31:31;3.48;87.89
69393;SHT31;56582;44.624;20.378;2023-03-16T06:33:58;3.46;87.81
69393;SHT31;56582;44.624;20.378;2023-03-16T06:36:24;3.39;88.63
69393;SHT31;56582;44.624;20.378;2023-03-16T06:38:49;3.29;87.30
69393;SHT31;56582;44.624;20.378;2023-03-16T06:41:15;3.38;88.40
69393;SHT31;56582;44.624;20.378;2023-03-16T06:43:41;3.32;86.99
69393;SHT31;56582;44.624;20.378;2023-03-16T06:46:06;3.18;87.03
69393;SHT31;56582;44.624;20.378;2023-03-16T06:48:32;3.18;86.96
69393;SHT31;56582;44.624;20.378;2023-03-16T06:50:57;3.19;85.66
69393;SHT31;56582;44.624;20.378;2023-03-16T06:53:23;3.12;85.63
69393;SHT31;56582;44.624;20.378;2023-03-16T06:55:48;3.09;85.05
69393;SHT31;56582;44.624;20.378;2023-03-16T06:58:14;3.09;84.76
69393;SHT31;56582;44.624;20.378;2023-03-16T07:00:39;2.98;85.21
69393;SHT31;56582;44.624;20.378;2023-03-16T07:03:04;3.01;84.98
69393;SHT31;56582;44.624;20.378;2023-03-16T07:05:30;3.07;84.76
69393;SHT31;56582;44.624;20.378;2023-03-16T07:07:56;3.14;83.91
69393;SHT31;56582;44.624;20.378;2023-03-16T07:10:22;3.11;83.75
69393;SHT31;56582;44.624;20.378;2023-03-16T07:12:48;3.23;81.87
69393;SHT31;56582;44.624;20.378;2023-03-16T07:15:14;3.23;83.04
69393;SHT31;56582;44.624;20.378;2023-03-16T07:17:40;3.19;81.67
69393;SHT31;56582;44.624;20.378;2023-03-16T07:20:07;3.46;83.05
69393;SHT31;56582;44.624;20.378;2023-03-16T07:22:35;3.55;80.69
69393;SHT31;56582;44.624;20.378;2023-03-16T07:25:01;3.53;81.40
69393;SHT31;56582;44.624;20.378;2023-03-16T07:27:27;3.77;80.72
69393;SHT31;56582;44.624;20.378;2023-03-16T07:29:54;3.77;80.38
69393;SHT31;56582;44.624;20.378;2023-03-16T07:32:19;3.94;82.16
69393;SHT31;56582;44.624;20.378;2023-03-16T07:34:46;4.04;79.88
69393;SHT31;56582;44.624;20.378;2023-03-16T07:37:11;4.15;81.04
69393;SHT31;56582;44.624;20.378;2023-03-16T07:39:37;4.35;80.85
69393;SHT31;56582;44.624;20.378;2023-03-16T07:42:02;4.56;79.57
69393;SHT31;56582;44.624;20.378;2023-03-16T07:44:28;4.37;76.27
69393;SHT31;56582;44.624;20.378;2023-03-16T07:46:54;4.50;77.12
69393;SHT31;56582;44.624;20.378;2023-03-16T07:49:19;4.38;75.53
69393;SHT31;56582;44.624;20.378;2023-03-16T07:51:45;4.42;76.03
69393;SHT31;56582;44.624;20.378;2023-03-16T07:54:11;4.24;74.74
69393;SHT31;56582;44.624;20.378;2023-03-16T07:56:36;4.17;76.41
69393;SHT31;56582;44.624;20.378;2023-03-16T07:59:02;4.34;77.51
69393;SHT31;56582;44.624;20.378;2023-03-16T08:01:28;4.42;77.35
69393;SHT31;56582;44.624;20.378;2023-03-16T08:03:53;4.12;75.85
69393;SHT31;56582;44.624;20.378;2023-03-16T08:06:19;3.91;75.81
69393;SHT31;56582;44.624;20.378;2023-03-16T08:08:45;3.89;76.59
69393;SHT31;56582;44.624;20.378;2023-03-16T08:11:11;3.91;76.20
69393;SHT31;56582;44.624;20.378;2023-03-16T08:13:36;4.27;76.66
69393;SHT31;56582;44.624;20.378;2023-03-16T08:16:02;4.28;75.92
69393;SHT31;56582;44.624;20.378;2023-03-16T08:18:28;4.50;75.81
69393;SHT31;56582;44.624;20.378;2023-03-16T08:20:57;4.38;74.43
69393;SHT31;56582;44.624;20.378;2023-03-16T08:23:23;4.35;74.67
69393;SHT31;56582;44.624;20.378;2023-03-16T08:25:54;4.44;76.18
69393;SHT31;56582;44.624;20.378;2023-03-16T08:28:20;4.68;75.73
69393;SHT31;56582;44.624;20.378;2023-03-16T08:30:51;4.53;73.41
69393;SHT31;56582;44.624;20.378;2023-03-16T08:33:18;4.42;73.96
69393;SHT31;56582;44.624;20.378;2023-03-16T08:35:45;4.68;74.16
69393;SHT31;56582;44.624;20.378;2023-03-16T08:38:12;4.97;74.15
69393;SHT31;56582;44.624;20.378;2023-03-16T08:40:39;5.00;73.40
69393;SHT31;56582;44.624;20.378;2023-03-16T08:43:07;5.01;72.77
69393;SHT31;56582;44.624;20.378;2023-03-16T08:45:32;5.10;72.71
69393;SHT31;56582;44.624;20.378;2023-03-16T08:47:59;4.97;70.90
69393;SHT31;56582;44.624;20.378;2023-03-16T08:50:25;5.20;72.20
69393;SHT31;56582;44.624;20.378;2023-03-16T08:52:51;5.30;71.73
69393;SHT31;56582;44.624;20.378;2023-03-16T08:55:17;5.37;71.52
69393;SHT31;56582;44.624;20.378;2023-03-16T08:57:43;5.45;70.73
69393;SHT31;56582;44.624;20.378;2023-03-16T09:00:10;5.42;70.47
69393;SHT31;56582;44.624;20.378;2023-03-16T09:02:42;5.69;71.05
69393;SHT31;56582;44.624;20.378;2023-03-16T09:05:12;5.60;69.09
69393;SHT31;56582;44.624;20.378;2023-03-16T09:07:39;5.66;69.83
69393;SHT31;56582;44.624;20.378;2023-03-16T09:10:08;5.72;69.80
69393;SHT31;56582;44.624;20.378;2023-03-16T09:12:37;5.79;68.73
69393;SHT31;56582;44.624;20.378;2023-03-16T09:15:05;5.76;69.21
69393;SHT31;56582;44.624;20.378;2023-03-16T09:17:31;5.75;69.66
69393;SHT31;56582;44.624;20.378;2023-03-16T09:19:57;5.75;69.13
69393;SHT31;56582;44.624;20.378;2023-03-16T09:22:23;5.78;68.27
69393;SHT31;56582;44.624;20.378;2023-03-16T09:24:48;5.93;69.34
69393;SHT31;56582;44.624;20.378;2023-03-16T09:27:15;6.27;67.50
69393;SHT31;56582;44.624;20.378;2023-03-16T09:29:41;6.38;68.88
69393;SHT31;56582;44.624;20.378;2023-03-16T09:32:07;6.30;67.73
69393;SHT31;56582;44.624;20.378;2023-03-16T09:34:33;5.90;68.74
69393;SHT31;56582;44.624;20.378;2023-03-16T09:36:58;5.83;70.18
69393;SHT31;56582;44.624;20.378;2023-03-16T09:39:24;6.05;69.84
69393;SHT31;56582;44.624;20.378;2023-03-16T09:45:02;5.86;68.83
69393;SHT31;56582;44.624;20.378;2023-03-16T09:47:27;5.80;68.44
69393;SHT31;56582;44.624;20.378;2023-03-16T09:49:57;6.17;69.23
69393;SHT31;56582;44.624;20.378;2023-03-16T09:55:26;5.87;66.92
69393;SHT31;56582;44.624;20.378;2023-03-16T09:57:54;6.16;66.16
69393;SHT31;56582;44.624;20.378;2023-03-16T10:00:23;6.49;66.60
69393;SHT31;56582;44.624;20.378;2023-03-16T10:05:36;6.09;68.39
69393;SHT31;56582;44.624;20.378;2023-03-16T10:08:23;6.38;69.05
69393;SHT31;56582;44.624;20.378;2023-03-16T10:13:40;6.54;64.60
69393;SHT31;56582;44.624;20.378;2023-03-16T10:16:23;6.49;65.15
69393;SHT31;56582;44.624;20.378;2023-03-16T10:18:57;6.95;65.95
69393;SHT31;56582;44.624;20.378;2023-03-16T10:21:25;6.72;66.11
69393;SHT31;56582;44.624;20.378;2023-03-16T10:23:53;6.16;66.31
69393;SHT31;56582;44.624;20.378;2023-03-16T10:26:25;6.38;67.46
69393;SHT31;56582;44.624;20.378;2023-03-16T10:28:52;6.92;65.68
69393;SHT31;56582;44.624;20.378;2023-03-16T10:31:20;7.12;63.68
69393;SHT31;56582;44.624;20.378;2023-03-16T10:33:49;6.84;64.18
69393;SHT31;56582;44.624;20.378;2023-03-16T10:36:29;6.33;63.32
69393;SHT31;56582;44.624;20.378;2023-03-16T10:38:57;6.58;62.49
69393;SHT31;56582;44.624;20.378;2023-03-16T10:41:30;6.81;61.43
69393;SHT31;56582;44.624;20.378;2023-03-16T10:46:38;7.05;62.82
69393;SHT31;56582;44.624;20.378;2023-03-16T10:49:04;7.10;63.02
69393;SHT31;56582;44.624;20.378;2023-03-16T10:51:32;6.99;62.54
69393;SHT31;56582;44.624;20.378;2023-03-16T10:54:27;6.93;60.56
69393;SHT31;56582;44.624;20.378;2023-03-16T10:56:55;7.13;61.11
69393;SHT31;56582;44.624;20.378;2023-03-16T10:59:29;7.42;60.45
69393;SHT31;56582;44.624;20.378;2023-03-16T11:01:57;7.12;58.64
69393;SHT31;56582;44.624;20.378;2023-03-16T11:04:22;7.58;61.62
69393;SHT31;56582;44.624;20.378;2023-03-16T11:06:57;7.64;61.41
69393;SHT31;56582;44.624;20.378;2023-03-16T11:09:41;7.10;61.57
69393;SHT31;56582;44.624;20.378;2023-03-16T11:12:25;7.27;62.79
69393;SHT31;56582;44.624;20.378;2023-03-16T11:14:51;7.36;61.57
69393;SHT31;56582;44.624;20.378;2023-03-16T11:17:27;6.95;61.21
69393;SHT31;56582;44.624;20.378;2023-03-16T11:20:00;7.03;61.71
69393;SHT31;56582;44.624;20.378;2023-03-16T11:22:30;7.24;61.59
69393;SHT31;56582;44.624;20.378;2023-03-16T11:28:01;6.96;61.30
69393;SHT31;56582;44.624;20.378;2023-03-16T11:31:05;7.02;60.15
69393;SHT31;56582;44.624;20.378;2023-03-16T11:33:32;7.30;60.18
69393;SHT31;56582;44.624;20.378;2023-03-16T11:39:23;6.72;60.80
69393;SHT31;56582;44.624;20.378;2023-03-16T11:56:38;6.78;60.65
69393;SHT31;56582;44.624;20.378;2023-03-16T12:07:24;7.57;58.19
69393;SHT31;56582;44.624;20.378;2023-03-16T12:10:09;7.36;58.60
69393;SHT31;56582;44.624;20.378;2023-03-16T12:15:45;7.47;59.88
69393;SHT31;56582;44.624;20.378;2023-03-16T12:20:47;7.22;59.89
69393;SHT31;56582;44.624;20.378;2023-03-16T12:23:20;7.57;59.64
69393;SHT31;56582;44.624;20.378;2023-03-16T12:25:49;7.47;56.87
69393;SHT31;56582;44.624;20.378;2023-03-16T12:28:27;7.20;57.15
69393;SHT31;56582;44.624;20.378;2023-03-16T12:34:07;7.30;57.16
69393;SHT31;56582;44.624;20.378;2023-03-16T12:37:00;7.12;57.80
69393;SHT31;56582;44.624;20.378;2023-03-16T12:42:24;7.51;59.61
69393;SHT31;56582;44.624;20.378;2023-03-16T12:50:10;7.50;58.99
69393;SHT31;56582;44.624;20.378;2023-03-16T12:52:47;7.57;59.29
69393;SHT31;56582;44.624;20.378;2023-03-16T12:55:16;7.65;58.44
69393;SHT31;56582;44.624;20.378;2023-03-16T12:57:44;7.40;57.50
69393;SHT31;56582;44.624;20.378;2023-03-16T13:00:11;7.64;58.33
69393;SHT31;56582;44.624;20.378;2023-03-16T13:02:41;7.20;58.21
69393;SHT31;56582;44.624;20.378;2023-03-16T13:05:13;7.22;58.81
69393;SHT31;56582;44.624;20.378;2023-03-16T13:07:47;7.19;60.83
69393;SHT31;56582;44.624;20.378;2023-03-16T13:10:14;7.33;61.54
69393;SHT31;56582;44.624;20.378;2023-03-16T13:12:42;7.67;57.54
69393;SHT31;56582;44.624;20.378;2023-03-16T13:17:48;7.86;57.39
69393;SHT31;56582;44.624;20.378;2023-03-16T13:20:30;7.78;59.59
69393;SHT31;56582;44.624;20.378;2023-03-16T13:26:17;7.82;58.07
69393;SHT31;56582;44.624;20.378;2023-03-16T13:28:51;7.65;56.48
69393;SHT31;56582;44.624;20.378;2023-03-16T13:31:24;7.51;59.00
69393;SHT31;56582;44.624;20.378;2023-03-16T13:33:55;7.64;59.06
69393;SHT31;56582;44.624;20.378;2023-03-16T13:36:25;7.50;56.89
69393;SHT31;56582;44.624;20.378;2023-03-16T13:38:58;7.70;56.41
69393;SHT31;56582;44.624;20.378;2023-03-16T13:41:27;7.77;55.86
69393;SHT31;56582;44.624;20.378;2023-03-16T13:43:53;7.74;55.89
69393;SHT31;56582;44.624;20.378;2023-03-16T13:46:20;7.63;55.47
69393;SHT31;56582;44.624;20.378;2023-03-16T13:48:47;7.68;55.65
69393;SHT31;56582;44.624;20.378;2023-03-16T13:51:17;7.60;55.39
69393;SHT31;56582;44.624;20.378;2023-03-16T13:53:45;7.46;56.85
69393;SHT31;56582;44.624;20.378;2023-03-16T13:56:14;7.51;56.47
69393;SHT31;56582;44.624;20.378;2023-03-16T13:58:43;7.46;56.34
69393;SHT31;56582;44.624;20.378;2023-03-16T14:01:22;7.15;55.70
69393;SHT31;56582;44.624;20.378;2023-03-16T14:03:49;7.10;57.25
69393;SHT31;56582;44.624;20.378;2023-03-16T14:06:23;7.05;56.58
69393;SHT31;56582;44.624;20.378;2023-03-16T14:08:53;7.33;57.55
69393;SHT31;56582;44.624;20.378;2023-03-16T14:11:21;7.71;57.23
69393;SHT31;56582;44.624;20.378;2023-03-16T14:13:55;7.78;54.91
69393;SHT31;56582;44.624;20.378;2023-03-16T14:16:23;7.82;55.30
69393;SHT31;56582;44.624;20.378;2023-03-16T14:19:03;7.68;55.68
69393;SHT31;56582;44.624;20.378;2023-03-16T14:21:31;7.28;57.47
69393;SHT31;56582;44.624;20.378;2023-03-16T14:24:01;7.19;57.72
69393;SHT31;56582;44.624;20.378;2023-03-16T14:26:39;7.17;56.57
69393;SHT31;56582;44.624;20.378;2023-03-16T14:29:49;7.24;56.66
69393;SHT31;56582;44.624;20.378;2023-03-16T14:32:20;7.28;56.01
69393;SHT31;56582;44.624;20.378;2023-03-16T14:34:48;7.57;54.91
69393;SHT31;56582;44.624;20.378;2023-03-16T14:37:15;7.71;54.23
69393;SHT31;56582;44.624;20.378;2023-03-16T14:39:44;7.73;52.46
69393;SHT31;56582;44.624;20.378;2023-03-16T14:42:17;7.63;52.54
69393;SHT31;56582;44.624;20.378;2023-03-16T14:44:44;7.55;53.21
69393;SHT31;56582;44.624;20.378;2023-03-16T14:47:20;7.68;53.97
69393;SHT31;56582;44.624;20.378;2023-03-16T14:49:47;7.50;53.98
69393;SHT31;56582;44.624;20.378;2023-03-16T14:52:23;7.51;55.07
69393;SHT31;56582;44.624;20.378;2023-03-16T14:54:50;7.26;54.86
69393;SHT31;56582;44.624;20.378;2023-03-16T14:57:16;7.24;55.80
69393;SHT31;56582;44.624;20.378;2023-03-16T14:59:42;7.36;56.55
69393;SHT31;56582;44.624;20.378;2023-03-16T15:02:22;7.19;57.04
69393;SHT31;56582;44.624;20.378;2023-03-16T15:04:49;7.09;57.47
69393;SHT31;56582;44.624;20.378;2023-03-16T15:09:55;6.85;58.38
69393;SHT31;56582;44.624;20.378;2023-03-16T15:12:25;7.00;58.06
69393;SHT31;56582;44.624;20.378;2023-03-16T15:14:51;6.93;58.52
69393;SHT31;56582;44.624;20.378;2023-03-16T15:17:35;6.86;57.69
69393;SHT31;56582;44.624;20.378;2023-03-16T15:20:00;6.86;57.56
69393;SHT31;56582;44.624;20.378;2023-03-16T15:22:31;7.09;57.08
69393;SHT31;56582;44.624;20.378;2023-03-16T15:24:57;7.06;57.50
69393;SHT31;56582;44.624;20.378;2023-03-16T15:27:27;7.20;55.50
69393;SHT31;56582;44.624;20.378;2023-03-16T15:29:55;7.02;55.41
69393;SHT31;56582;44.624;20.378;2023-03-16T15:32:21;6.92;56.06
69393;SHT31;56582;44.624;20.378;2023-03-16T15:34:47;6.93;54.75
69393;SHT31;56582;44.624;20.378;2023-03-16T15:37:16;6.69;55.50
69393;SHT31;56582;44.624;20.378;2023-03-16T15:39:43;6.63;55.83
69393;SHT31;56582;44.624;20.378;2023-03-16T15:42:19;6.69;56.27
69393;SHT31;56582;44.624;20.378;2023-03-16T15:44:45;6.67;56.89
69393;SHT31;56582;44.624;20.378;2023-03-16T15:47:11;6.59;58.06
69393;SHT31;56582;44.624;20.378;2023-03-16T15:49:39;6.51;58.42
69393;SHT31;56582;44.624;20.378;2023-03-16T15:52:05;6.57;58.04
69393;SHT31;56582;44.624;20.378;2023-03-16T15:54:35;6.65;57.76
69393;SHT31;56582;44.624;20.378;2023-03-16T15:57:01;6.55;57.46
69393;SHT31;56582;44.624;20.378;2023-03-16T15:59:32;6.55;57.50
69393;SHT31;56582;44.624;20.378;2023-03-16T16:02:00;6.48;57.09
69393;SHT31;56582;44.624;20.378;2023-03-16T16:04:26;6.59;55.00
69393;SHT31;56582;44.624;20.378;2023-03-16T16:06:52;6.49;55.24
69393;SHT31;56582;44.624;20.378;2023-03-16T16:09:19;6.28;56.06
69393;SHT31;56582;44.624;20.378;2023-03-16T16:11:45;6.44;55.81
69393;SHT31;56582;44.624;20.378;2023-03-16T16:14:16;6.34;56.06
69393;SHT31;56582;44.624;20.378;2023-03-16T16:16:43;6.30;55.51
69393;SHT31;56582;44.624;20.378;2023-03-16T16:19:16;6.33;56.55
69393;SHT31;56582;44.624;20.378;2023-03-16T16:21:43;6.30;56.70
69393;SHT31;56582;44.624;20.378;2023-03-16T16:24:09;6.24;56.80
69393;SHT31;56582;44.624;20.378;2023-03-16T16:26:41;6.21;57.16
69393;SHT31;56582;44.624;20.378;2023-03-16T16:29:17;6.13;57.62
69393;SHT31;56582;44.624;20.378;2023-03-16T16:31:43;6.00;57.61
69393;SHT31;56582;44.624;20.378;2023-03-16T16:34:14;5.96;58.03
69393;SHT31;56582;44.624;20.378;2023-03-16T16:36:40;5.90;58.40
69393;SHT31;56582;44.624;20.378;2023-03-16T16:39:06;5.93;58.82
69393;SHT31;56582;44.624;20.378;2023-03-16T16:41:32;5.85;58.83
69393;SHT31;56582;44.624;20.378;2023-03-16T16:44:03;5.86;59.20
69393;SHT31;56582;44.624;20.378;2023-03-16T16:46:36;5.90;59.06
69393;SHT31;56582;44.624;20.378;2023-03-16T16:49:14;5.89;58.84
69393;SHT31;56582;44.624;20.378;2023-03-16T16:51:42;5.85;59.10
69393;SHT31;56582;44.624;20.378;2023-03-16T16:54:16;5.76;59.65
69393;SHT31;56582;44.624;20.378;2023-03-16T16:56:43;5.70;59.54